Time;durP1;ratioP1;P1;durP2;ratioP2;P2;SDS_P1;SDS_P2;PMS_P1;PMS_P2;Temp;Humidity;BMP_temperature;BMP_pressure;BME280_temperature;BME280_humidity;BME280_pressure;Samples;Min_cycle;Max_cycle;Signal;HPM_P1;HPM_P2
2023/02/28 00:00:16;;;;;;;9.43;4.83;;;-0.20;89.10;;;;;;6257183;28;20155;-79
2023/02/28 00:03:19;;;;;;;5.47;3.97;;;-0.30;89.50;;;;;;6207931;28;20053;-79
2023/02/28 00:06:21;;;;;;;11.47;4.83;;;-0.30;89.80;;;;;;6237599;28;20060;-79
2023/02/28 00:09:23;;;;;;;5.77;4.30;;;-0.30;89.90;;;;;;6240211;28;20054;-79
2023/02/28 00:12:25;;;;;;;6.57;4.03;;;-0.40;90.00;;;;;;6236468;28;20492;-79
2023/02/28 00:15:27;;;;;;;6.67;4.37;;;-0.40;90.40;;;;;;6241353;28;20514;-79
2023/02/28 00:18:30;;;;;;;8.43;5.20;;;-0.40;90.20;;;;;;6238876;28;20051;-79
2023/02/28 00:21:32;;;;;;;5.53;4.00;;;-0.40;90.30;;;;;;6233515;28;20882;-78
2023/02/28 00:24:33;;;;;;;7.33;4.37;;;-0.40;90.30;;;;;;6241123;28;20057;-79
2023/02/28 00:27:36;;;;;;;7.70;3.73;;;-0.50;90.40;;;;;;6238355;28;20042;-79
2023/02/28 00:30:37;;;;;;;5.20;4.00;;;-0.50;90.50;;;;;;6239367;28;20052;-79
2023/02/28 00:33:40;;;;;;;5.67;4.03;;;-0.50;90.60;;;;;;6239067;28;20061;-79
2023/02/28 00:36:45;;;;;;;4.80;4.03;;;-0.50;90.70;;;;;;6241103;28;20057;-78
2023/02/28 00:39:46;;;;;;;7.13;3.87;;;-0.50;90.80;;;;;;6236616;28;20599;-79
2023/02/28 00:42:48;;;;;;;6.20;3.63;;;-0.50;91.00;;;;;;6237394;28;20041;-79
2023/02/28 00:45:50;;;;;;;4.10;3.70;;;-0.50;91.10;;;;;;6241156;28;20488;-79
2023/02/28 00:48:53;;;;;;;7.73;5.10;;;-0.50;91.20;;;;;;6238096;28;20443;-78
2023/02/28 00:51:56;;;;;;;3.63;3.10;;;-0.50;91.30;;;;;;6239260;28;20421;-79
2023/02/28 00:54:57;;;;;;;4.27;3.40;;;-0.50;91.20;;;;;;6240609;28;20066;-78
2023/02/28 00:57:59;;;;;;;5.47;4.27;;;-0.50;91.40;;;;;;6241639;28;20057;-78
2023/02/28 01:01:01;;;;;;;5.07;4.00;;;-0.50;91.50;;;;;;6239357;28;20061;-79
2023/02/28 01:04:04;;;;;;;5.43;4.03;;;-0.50;91.50;;;;;;6237741;28;20053;-78
2023/02/28 01:07:06;;;;;;;5.33;4.83;;;-0.50;91.50;;;;;;6236482;28;20411;-79
2023/02/28 01:10:09;;;;;;;5.33;3.77;;;-0.50;91.60;;;;;;6240071;28;20050;-79
2023/02/28 01:13:11;;;;;;;8.97;4.33;;;-0.50;91.60;;;;;;6241093;28;20045;-79
2023/02/28 01:16:14;;;;;;;6.33;4.23;;;-0.60;91.60;;;;;;6240226;28;20049;-78
2023/02/28 01:19:17;;;;;;;4.10;3.40;;;-0.70;91.70;;;;;;6239794;28;20049;-78
2023/02/28 01:22:18;;;;;;;5.13;4.63;;;-0.70;91.90;;;;;;6237169;28;20048;-78
2023/02/28 01:25:20;;;;;;;4.43;4.00;;;-0.70;91.90;;;;;;6239572;28;20053;-78
2023/02/28 01:28:22;;;;;;;6.47;5.30;;;-0.70;91.90;;;;;;6243447;28;20068;-79
2023/02/28 01:31:24;;;;;;;7.83;5.83;;;-0.70;92.00;;;;;;6242763;28;20056;-78
2023/02/28 01:34:27;;;;;;;4.50;3.97;;;-0.80;92.20;;;;;;6241049;28;20038;-78
2023/02/28 01:37:29;;;;;;;5.67;4.60;;;-0.80;92.20;;;;;;6235880;28;20060;-78
2023/02/28 01:40:30;;;;;;;5.43;4.53;;;-0.80;92.30;;;;;;6232752;28;20049;-78
2023/02/28 01:43:52;;;;;;;5.20;4.33;;;-0.80;92.40;;;;;;6239408;28;20037;-78
2023/02/28 01:46:54;;;;;;;3.77;3.43;;;-0.80;92.40;;;;;;6234259;28;20049;-79
2023/02/28 01:49:58;;;;;;;6.10;3.57;;;-0.80;92.50;;;;;;6233952;28;20049;-78
2023/02/28 01:53:04;;;;;;;5.63;4.17;;;-0.80;92.70;;;;;;6233715;28;20052;-78
2023/02/28 01:56:07;;;;;;;6.57;4.50;;;-0.80;92.70;;;;;;6234999;28;20053;-78
2023/02/28 01:59:09;;;;;;;5.63;4.50;;;-0.80;92.80;;;;;;6230431;28;20504;-78
2023/02/28 02:02:11;;;;;;;4.17;3.77;;;-0.90;92.80;;;;;;6236314;28;20045;-78
2023/02/28 02:05:17;;;;;;;6.43;4.17;;;-0.80;93.10;;;;;;6227925;28;20045;-79
2023/02/28 02:08:22;;;;;;;7.63;4.77;;;-0.90;93.10;;;;;;6228449;28;20042;-78
2023/02/28 02:11:25;;;;;;;5.80;4.30;;;-0.90;93.10;;;;;;6234845;28;20041;-78
2023/02/28 02:14:51;;;;;;;7.53;4.80;;;-0.90;93.20;;;;;;6234597;28;20404;-78
2023/02/28 02:17:57;;;;;;;6.77;3.50;;;-0.90;93.30;;;;;;6229540;28;20065;-78
2023/02/28 02:21:49;;;;;;;6.60;4.50;;;-0.90;93.20;;;;;;6236103;28;20049;-78
2023/02/28 02:25:15;;;;;;;9.00;4.73;;;-1.00;93.40;;;;;;6236335;28;20061;-78
2023/02/28 02:29:04;;;;;;;7.53;4.70;;;-1.00;93.40;;;;;;6232430;28;20068;-78
2023/02/28 02:32:29;;;;;;;5.50;4.13;;;-1.10;93.50;;;;;;6202202;28;20045;-78
2023/02/28 02:35:41;;;;;;;5.60;5.00;;;-1.10;93.60;;;;;;6232988;28;20103;-78
2023/02/28 02:38:49;;;;;;;12.63;4.97;;;-1.10;93.60;;;;;;6235113;28;20046;-78
2023/02/28 02:41:54;;;;;;;5.43;3.97;;;-1.10;93.70;;;;;;6234365;28;20472;-78
2023/02/28 02:45:01;;;;;;;5.37;4.10;;;-1.20;93.80;;;;;;6232849;28;20049;-78
2023/02/28 02:48:06;;;;;;;7.55;5.40;;;-1.20;94.00;;;;;;6232643;28;20046;-78
2023/02/28 02:51:14;;;;;;;5.33;4.10;;;-1.10;94.20;;;;;;6234445;28;20049;-78
2023/02/28 02:54:20;;;;;;;8.53;4.87;;;-1.10;94.30;;;;;;6239708;28;20050;-79
2023/02/28 02:57:27;;;;;;;4.63;4.23;;;-1.10;94.40;;;;;;6242981;28;20053;-79
2023/02/28 03:00:35;;;;;;;6.75;5.10;;;-1.10;94.40;;;;;;6243338;28;20049;-79
2023/02/28 03:03:37;;;;;;;8.00;4.07;;;-1.10;94.60;;;;;;6244190;28;20065;-80
2023/02/28 03:06:40;;;;;;;5.90;4.53;;;-1.10;94.60;;;;;;6244002;28;20049;-79
2023/02/28 03:09:51;;;;;;;5.63;5.00;;;-1.10;94.90;;;;;;6240231;28;20058;-79
2023/02/28 03:13:01;;;;;;;6.33;3.80;;;-1.00;95.00;;;;;;6244654;28;20519;-80
2023/02/28 03:16:14;;;;;;;5.70;4.37;;;-0.90;95.10;;;;;;6241983;28;20056;-79
2023/02/28 03:19:39;;;;;;;11.57;4.73;;;-0.80;95.30;;;;;;6248059;28;20084;-79
2023/02/28 03:22:55;;;;;;;5.70;4.33;;;-0.70;95.30;;;;;;6245791;28;20084;-79
2023/02/28 03:26:02;;;;;;;6.07;4.33;;;-0.60;95.30;;;;;;6247037;28;20049;-79
2023/02/28 03:29:12;;;;;;;6.63;4.65;;;-0.60;95.30;;;;;;6241515;28;20397;-80
2023/02/28 03:32:21;;;;;;;5.83;5.00;;;-0.50;95.40;;;;;;6242769;28;20493;-80
2023/02/28 03:35:25;;;;;;;5.33;4.77;;;-0.40;95.40;;;;;;6243891;28;20044;-79
2023/02/28 03:38:32;;;;;;;5.63;5.07;;;-0.40;95.40;;;;;;6244933;28;20045;-79
2023/02/28 03:41:39;;;;;;;6.90;5.40;;;-0.30;95.50;;;;;;6244723;28;20045;-79
2023/02/28 03:44:43;;;;;;;10.52;5.68;;;-0.30;95.80;;;;;;6244610;28;20053;-78
2023/02/28 03:47:50;;;;;;;5.43;4.67;;;-0.20;95.60;;;;;;6242490;28;20042;-79
2023/02/28 03:50:56;;;;;;;10.68;4.78;;;-0.20;95.60;;;;;;6241502;28;20103;-79
2023/02/28 03:54:05;;;;;;;10.33;5.23;;;-0.20;95.60;;;;;;6244905;28;20065;-79
2023/02/28 03:57:13;;;;;;;7.20;6.20;;;-0.10;95.70;;;;;;6247819;28;20048;-78
2023/02/28 04:00:20;;;;;;;10.23;4.97;;;-0.10;95.70;;;;;;6245557;28;20052;-78
2023/02/28 04:03:23;;;;;;;8.32;4.82;;;-0.10;95.80;;;;;;6246925;28;20049;-79
2023/02/28 04:06:25;;;;;;;6.77;4.40;;;-0.10;95.80;;;;;;6241137;28;20053;-79
2023/02/28 04:09:28;;;;;;;7.93;5.10;;;0.00;95.90;;;;;;6246110;28;20057;-79
2023/02/28 04:12:30;;;;;;;8.17;4.60;;;0.00;95.90;;;;;;6242897;28;20139;-79
2023/02/28 04:15:32;;;;;;;6.00;4.93;;;0.00;95.90;;;;;;6246037;28;20050;-79
2023/02/28 04:18:34;;;;;;;6.70;5.37;;;0.00;96.00;;;;;;6242857;28;20046;-79
2023/02/28 04:21:38;;;;;;;6.80;5.00;;;0.00;96.00;;;;;;6245868;28;20412;-79
2023/02/28 04:24:42;;;;;;;6.03;4.40;;;0.00;96.00;;;;;;6244353;28;20045;-79
2023/02/28 04:27:44;;;;;;;7.83;6.47;;;0.00;96.00;;;;;;6247589;28;20050;-79
2023/02/28 04:30:46;;;;;;;6.00;4.87;;;0.10;96.10;;;;;;6245704;28;20053;-79
2023/02/28 04:33:47;;;;;;;8.63;6.20;;;0.10;96.10;;;;;;6246025;28;20531;-79
2023/02/28 04:36:50;;;;;;;9.30;5.77;;;0.10;96.10;;;;;;6243481;28;20057;-79
2023/02/28 04:39:53;;;;;;;6.27;5.17;;;0.10;96.10;;;;;;6238981;28;20061;-79
2023/02/28 04:42:55;;;;;;;6.50;5.40;;;0.10;96.10;;;;;;6237359;28;20562;-78
2023/02/28 04:45:57;;;;;;;8.57;5.70;;;0.10;96.10;;;;;;6237397;28;20053;-78
2023/02/28 04:48:59;;;;;;;5.70;4.73;;;0.00;96.10;;;;;;6238047;28;20311;-80
2023/02/28 04:52:01;;;;;;;9.07;5.27;;;0.00;96.10;;;;;;6238034;28;20042;-78
2023/02/28 04:55:05;;;;;;;9.30;5.87;;;-0.10;96.10;;;;;;6236327;28;20052;-78
2023/02/28 04:58:07;;;;;;;6.97;5.20;;;-0.10;96.10;;;;;;6238261;28;20045;-78
2023/02/28 05:01:18;;;;;;;8.60;5.87;;;-0.20;96.20;;;;;;6232775;28;20068;-78
2023/02/28 05:04:20;;;;;;;7.40;6.13;;;-0.20;96.30;;;;;;6242934;28;20046;-78
2023/02/28 05:07:22;;;;;;;8.27;6.00;;;-0.30;96.30;;;;;;6235198;28;20049;-79
2023/02/28 05:10:25;;;;;;;6.47;5.20;;;-0.30;96.40;;;;;;6235818;28;20049;-79
2023/02/28 05:13:27;;;;;;;7.27;5.17;;;-0.30;96.50;;;;;;6238079;28;20045;-79
2023/02/28 05:16:28;;;;;;;11.33;6.37;;;-0.20;96.60;;;;;;6238650;28;20052;-78
2023/02/28 05:19:30;;;;;;;7.13;4.97;;;-0.20;96.60;;;;;;6242172;28;20049;-79
2023/02/28 05:22:32;;;;;;;6.63;5.57;;;-0.20;96.60;;;;;;6236179;28;20058;-78
2023/02/28 05:25:35;;;;;;;8.53;5.50;;;-0.20;96.50;;;;;;6235266;28;20057;-78
2023/02/28 05:28:36;;;;;;;7.13;4.97;;;-0.30;96.60;;;;;;6237226;28;20049;-78
2023/02/28 05:31:38;;;;;;;7.53;6.10;;;-0.30;96.70;;;;;;6235192;28;20053;-79
2023/02/28 05:34:40;;;;;;;9.87;5.63;;;-0.30;96.80;;;;;;6234974;28;20065;-79
2023/02/28 05:37:42;;;;;;;7.03;6.27;;;-0.30;96.80;;;;;;6237126;28;20149;-78
2023/02/28 05:40:45;;;;;;;5.70;4.63;;;-0.30;96.90;;;;;;6236998;28;20046;-79
2023/02/28 05:43:47;;;;;;;8.57;5.47;;;-0.30;97.00;;;;;;6236323;28;20092;-81
2023/02/28 05:46:49;;;;;;;8.80;5.90;;;-0.30;97.00;;;;;;6242504;28;20052;-81
2023/02/28 05:49:51;;;;;;;7.70;4.97;;;-0.30;97.10;;;;;;6241891;28;20049;-81
2023/02/28 05:52:52;;;;;;;7.03;5.57;;;-0.30;97.10;;;;;;6239951;28;20488;-80
2023/02/28 05:55:55;;;;;;;10.87;6.67;;;-0.30;97.20;;;;;;6238841;28;20608;-80
2023/02/28 05:58:57;;;;;;;7.83;5.43;;;-0.30;97.20;;;;;;6251776;28;20068;-80
2023/02/28 06:01:59;;;;;;;7.07;4.80;;;-0.20;97.30;;;;;;6246736;28;20069;-80
2023/02/28 06:05:01;;;;;;;7.00;5.70;;;-0.20;97.30;;;;;;6252130;28;20058;-80
2023/02/28 06:08:03;;;;;;;11.30;8.53;;;-0.20;97.30;;;;;;6252227;28;20128;-80
2023/02/28 06:11:06;;;;;;;11.93;6.73;;;-0.10;97.20;;;;;;6242512;28;20056;-81
2023/02/28 06:14:14;;;;;;;8.43;6.70;;;-0.10;97.40;;;;;;6239176;28;20463;-83
2023/02/28 06:17:15;;;;;;;7.82;6.00;;;0.00;97.50;;;;;;6236742;28;20077;-81
2023/02/28 06:20:17;;;;;;;9.13;5.57;;;0.00;97.50;;;;;;6240661;28;20041;-82
2023/02/28 06:23:19;;;;;;;7.87;5.33;;;0.10;97.50;;;;;;6238774;28;20045;-79
2023/02/28 06:26:22;;;;;;;16.50;7.53;;;0.10;97.40;;;;;;6244255;28;20046;-79
2023/02/28 06:29:24;;;;;;;8.40;5.70;;;0.20;97.50;;;;;;6236235;28;20053;-80
2023/02/28 06:32:26;;;;;;;10.70;6.63;;;0.10;97.40;;;;;;6248432;28;20052;-79
2023/02/28 06:35:27;;;;;;;9.00;6.13;;;0.20;97.50;;;;;;6245172;28;20049;-81
2023/02/28 06:38:29;;;;;;;8.17;6.07;;;0.30;97.50;;;;;;6244816;28;20057;-80
2023/02/28 06:41:37;;;;;;;13.13;8.53;;;0.30;97.40;;;;;;6240613;28;20049;-80
2023/02/28 06:44:39;;;;;;;10.10;6.47;;;0.40;97.50;;;;;;6238968;28;20049;-80
2023/02/28 06:47:42;;;;;;;7.03;5.50;;;0.40;97.50;;;;;;6235539;28;20057;-80
2023/02/28 06:50:43;;;;;;;12.60;7.03;;;0.50;97.50;;;;;;6232320;28;20045;-80
2023/02/28 06:53:45;;;;;;;8.80;5.03;;;0.50;97.50;;;;;;6235715;28;20045;-80
2023/02/28 06:56:48;;;;;;;10.40;6.20;;;0.50;97.40;;;;;;6229589;28;20416;-80
2023/02/28 06:59:50;;;;;;;8.00;7.23;;;0.60;97.40;;;;;;6235275;28;20049;-80
2023/02/28 07:02:53;;;;;;;9.70;6.60;;;0.60;97.30;;;;;;6243674;28;20033;-80
2023/02/28 07:05:56;;;;;;;7.27;5.47;;;0.60;97.30;;;;;;6240098;28;20050;-80
2023/02/28 07:08:58;;;;;;;8.23;5.53;;;0.60;97.30;;;;;;6243541;28;20063;-81
2023/02/28 07:12:01;;;;;;;12.63;8.32;;;0.70;97.20;;;;;;6232420;28;20516;-80
2023/02/28 07:15:03;;;;;;;11.60;6.77;;;0.70;97.20;;;;;;6238004;28;20456;-80
2023/02/28 07:18:05;;;;;;;9.30;5.60;;;0.80;97.20;;;;;;6236438;28;20045;-81
2023/02/28 07:21:08;;;;;;;7.33;4.23;;;0.80;97.10;;;;;;6230992;28;20042;-80
2023/02/28 07:24:10;;;;;;;9.73;6.73;;;0.80;97.00;;;;;;6232380;28;20396;-80
2023/02/28 07:27:25;;;;;;;8.53;6.37;;;0.90;96.90;;;;;;6232992;28;20053;-80
2023/02/28 07:30:27;;;;;;;7.60;4.93;;;0.90;97.00;;;;;;6231943;28;20053;-81
2023/02/28 07:33:28;;;;;;;10.60;7.50;;;0.90;96.90;;;;;;6235874;28;20057;-81
2023/02/28 07:36:30;;;;;;;8.67;6.47;;;1.00;96.90;;;;;;6233829;28;20054;-80
2023/02/28 07:39:32;;;;;;;9.63;8.67;;;1.10;96.80;;;;;;6237071;28;20071;-81
2023/02/28 07:42:35;;;;;;;198.43;107.80;;;1.10;96.80;;;;;;6235073;28;20072;-81
2023/02/28 07:45:37;;;;;;;37.30;22.87;;;1.20;96.80;;;;;;6231932;28;20046;-81
2023/02/28 07:48:39;;;;;;;14.10;11.83;;;1.30;96.70;;;;;;6236447;28;20061;-81
2023/02/28 07:51:41;;;;;;;12.67;9.60;;;1.30;96.40;;;;;;6232922;28;20546;-81
2023/02/28 07:54:42;;;;;;;8.38;6.32;;;1.30;96.40;;;;;;6235841;28;20048;-80
2023/02/28 07:57:45;;;;;;;10.05;7.10;;;1.40;96.20;;;;;;6234307;28;20053;-81
2023/02/28 08:00:47;;;;;;;14.65;7.53;;;1.40;96.30;;;;;;6236698;28;20053;-80
2023/02/28 08:03:49;;;;;;;9.20;7.40;;;1.40;96.10;;;;;;6241361;28;20038;-80
2023/02/28 08:06:52;;;;;;;9.02;6.53;;;1.40;96.00;;;;;;6254234;28;20053;-79
2023/02/28 08:09:54;;;;;;;6.90;5.63;;;1.40;96.00;;;;;;6246146;28;20052;-81
2023/02/28 08:12:57;;;;;;;8.10;5.95;;;1.40;95.80;;;;;;6248441;28;20046;-79
2023/02/28 08:16:02;;;;;;;10.05;8.57;;;1.40;95.70;;;;;;6252248;28;20048;-78
2023/02/28 08:19:03;;;;;;;7.45;6.63;;;1.50;95.80;;;;;;6249084;28;20050;-79
2023/02/28 08:22:05;;;;;;;13.50;8.57;;;1.50;95.70;;;;;;6256200;28;20077;-79
2023/02/28 08:25:08;;;;;;;10.18;8.23;;;1.60;95.90;;;;;;6252715;28;20057;-80
2023/02/28 08:28:11;;;;;;;9.10;6.55;;;1.70;95.90;;;;;;6254532;28;20044;-80
2023/02/28 08:31:15;;;;;;;10.13;7.72;;;1.80;95.70;;;;;;6254328;28;20052;-81
2023/02/28 08:34:18;;;;;;;11.85;6.75;;;1.90;95.30;;;;;;6254030;28;20049;-80
2023/02/28 08:37:20;;;;;;;11.40;5.88;;;1.80;95.10;;;;;;6257536;28;20053;-79
2023/02/28 08:40:21;;;;;;;10.52;6.93;;;1.80;95.00;;;;;;6253656;28;20492;-79
2023/02/28 08:43:24;;;;;;;8.63;7.07;;;1.80;95.10;;;;;;6254445;28;20034;-81
2023/02/28 08:46:26;;;;;;;10.50;7.75;;;1.80;95.00;;;;;;6256319;28;20041;-80
2023/02/28 08:49:28;;;;;;;9.90;7.35;;;1.80;95.10;;;;;;6258044;28;20057;-80
2023/02/28 08:52:30;;;;;;;11.10;7.57;;;1.90;95.00;;;;;;6255124;28;20064;-81
2023/02/28 08:55:32;;;;;;;12.18;8.38;;;1.90;95.00;;;;;;6254433;28;20536;-80
2023/02/28 08:58:35;;;;;;;10.27;7.63;;;1.90;95.10;;;;;;6260129;28;20037;-79
2023/02/28 09:01:37;;;;;;;6.75;6.00;;;2.10;95.10;;;;;;6261638;28;20046;-82
2023/02/28 09:04:38;;;;;;;12.52;6.43;;;2.20;94.90;;;;;;6269835;28;20061;-80
2023/02/28 09:07:40;;;;;;;12.10;8.98;;;2.40;94.80;;;;;;6264381;28;20519;-79
2023/02/28 09:10:42;;;;;;;9.20;6.85;;;2.40;94.50;;;;;;6260820;28;20123;-79
2023/02/28 09:13:45;;;;;;;9.15;6.20;;;2.40;94.30;;;;;;6269272;28;20056;-81
2023/02/28 09:16:47;;;;;;;8.73;7.15;;;2.50;94.40;;;;;;6272996;28;20059;-81
2023/02/28 09:19:49;;;;;;;12.25;9.52;;;2.50;94.00;;;;;;6270897;28;20042;-78
2023/02/28 09:22:51;;;;;;;12.10;7.00;;;2.50;93.90;;;;;;6266814;28;20099;-79
2023/02/28 09:25:55;;;;;;;11.07;8.05;;;2.60;93.90;;;;;;6252448;28;20049;-79
2023/02/28 09:28:58;;;;;;;6.70;5.10;;;2.60;93.90;;;;;;6261782;28;20042;-80
2023/02/28 09:32:00;;;;;;;11.77;8.27;;;2.70;93.60;;;;;;6260793;28;20051;-80
2023/02/28 09:35:02;;;;;;;11.75;8.98;;;2.70;93.40;;;;;;6261356;28;20053;-80
2023/02/28 09:38:04;;;;;;;8.27;6.80;;;2.70;93.60;;;;;;6261732;28;20415;-79
2023/02/28 09:41:14;;;;;;;13.27;6.93;;;2.80;93.40;;;;;;6264475;28;20057;-79
2023/02/28 09:44:25;;;;;;;10.68;8.15;;;2.90;93.40;;;;;;6264168;28;20049;-79
2023/02/28 09:47:33;;;;;;;14.80;9.73;;;3.00;93.50;;;;;;6267387;28;20046;-79
2023/02/28 09:50:39;;;;;;;10.48;7.72;;;3.20;93.70;;;;;;6264470;28;20045;-79
2023/02/28 09:53:41;;;;;;;12.00;7.72;;;3.60;93.30;;;;;;6268010;28;20046;-79
2023/02/28 09:56:44;;;;;;;14.85;7.88;;;3.80;93.20;;;;;;6268676;28;20049;-79
2023/02/28 10:00:05;;;;;;;8.43;7.65;;;4.00;92.70;;;;;;6266356;28;20042;-79
2023/02/28 10:03:28;;;;;;;12.07;6.18;;;4.10;92.20;;;;;;6263795;28;20091;-80
2023/02/28 10:06:34;;;;;;;14.52;10.75;;;4.10;91.50;;;;;;6263857;28;20049;-79
2023/02/28 10:09:38;;;;;;;9.45;7.88;;;4.00;91.50;;;;;;6261083;28;20049;-79
2023/02/28 10:12:43;;;;;;;13.60;8.38;;;4.10;91.60;;;;;;6259018;28;20060;-79
2023/02/28 10:15:51;;;;;;;9.07;8.18;;;4.20;91.50;;;;;;6250945;28;20042;-79
2023/02/28 10:18:58;;;;;;;12.40;10.23;;;4.40;91.50;;;;;;6237621;28;20046;-78
2023/02/28 10:22:04;;;;;;;12.27;8.90;;;4.60;91.20;;;;;;6253993;28;20050;-78
2023/02/28 10:25:18;;;;;;;10.80;6.50;;;4.90;90.80;;;;;;6254940;28;20053;-78
2023/02/28 10:28:20;;;;;;;14.15;9.98;;;4.80;90.10;;;;;;6239233;28;20046;-78
2023/02/28 10:31:23;;;;;;;11.80;8.93;;;4.60;89.80;;;;;;6231725;28;20046;-79
2023/02/28 10:34:25;;;;;;;11.90;8.07;;;4.50;89.60;;;;;;6251292;28;20393;-79
2023/02/28 10:37:28;;;;;;;10.35;8.23;;;4.30;89.90;;;;;;6262421;28;20053;-79
2023/02/28 10:40:33;;;;;;;12.07;8.63;;;4.20;89.70;;;;;;6261796;28;20045;-79
2023/02/28 10:43:35;;;;;;;12.77;9.90;;;4.00;89.70;;;;;;6260530;28;20041;-79
2023/02/28 10:46:41;;;;;;;20.20;11.23;;;4.00;90.10;;;;;;6256224;28;20052;-77
2023/02/28 10:49:48;;;;;;;15.57;10.85;;;3.90;89.90;;;;;;6260076;28;20060;-79
2023/02/28 10:52:50;;;;;;;9.60;6.85;;;3.80;90.10;;;;;;6258311;28;20059;-78
2023/02/28 10:55:58;;;;;;;6.78;6.13;;;3.90;90.10;;;;;;6256039;28;20045;-78
2023/02/28 10:59:02;;;;;;;12.35;8.80;;;3.90;90.10;;;;;;6256885;28;20048;-80
2023/02/28 11:02:32;;;;;;;10.82;8.18;;;3.80;90.10;;;;;;6260102;28;20475;-80
2023/02/28 11:05:36;;;;;;;11.95;7.05;;;3.80;90.30;;;;;;6259655;28;20038;-78
2023/02/28 11:08:46;;;;;;;11.13;9.18;;;3.90;90.20;;;;;;6259602;28;20056;-78
2023/02/28 11:11:50;;;;;;;12.20;9.45;;;3.90;90.10;;;;;;6256127;28;20045;-77
2023/02/28 11:14:56;;;;;;;12.77;9.77;;;3.90;90.10;;;;;;6257125;28;20042;-78
2023/02/28 11:18:01;;;;;;;14.48;9.30;;;3.90;90.10;;;;;;6258021;28;20498;-77
2023/02/28 11:21:03;;;;;;;10.73;9.30;;;3.90;90.20;;;;;;6259784;28;20054;-77
2023/02/28 11:24:13;;;;;;;17.88;11.82;;;4.00;90.30;;;;;;6259060;28;20037;-78
2023/02/28 11:27:27;;;;;;;13.00;10.32;;;4.10;90.10;;;;;;6265172;28;20053;-79
2023/02/28 11:30:35;;;;;;;11.27;9.10;;;4.20;90.10;;;;;;6260956;28;20049;-78
2023/02/28 11:33:44;;;;;;;8.73;7.82;;;4.20;89.70;;;;;;6257687;28;20131;-79
2023/02/28 11:36:46;;;;;;;13.35;9.75;;;4.20;89.60;;;;;;6260557;28;20057;-79
2023/02/28 11:39:48;;;;;;;16.42;9.13;;;4.10;89.60;;;;;;6261118;28;20045;-80
2023/02/28 11:43:02;;;;;;;12.02;8.98;;;4.30;90.00;;;;;;6266576;28;20057;-78
2023/02/28 11:46:19;;;;;;;12.35;9.35;;;4.40;90.00;;;;;;6256453;28;20053;-79
2023/02/28 11:49:37;;;;;;;16.33;9.43;;;4.60;89.00;;;;;;6255724;28;20064;-78
2023/02/28 11:52:46;;;;;;;11.00;9.77;;;4.60;88.50;;;;;;6256878;28;20160;-79
2023/02/28 11:55:52;;;;;;;16.27;11.05;;;4.60;88.40;;;;;;6262076;28;20064;-79
2023/02/28 11:59:02;;;;;;;13.63;8.60;;;4.80;88.30;;;;;;6263172;28;20041;-81
2023/02/28 12:02:21;;;;;;;14.57;10.00;;;4.90;88.50;;;;;;6268506;28;20053;-80
2023/02/28 12:05:32;;;;;;;13.93;9.38;;;5.10;87.80;;;;;;6260346;28;20046;-82
2023/02/28 12:08:47;;;;;;;14.80;11.25;;;5.20;86.60;;;;;;6265185;28;20052;-82
2023/02/28 12:11:54;;;;;;;14.70;9.68;;;5.20;86.30;;;;;;6265963;28;20083;-81
2023/02/28 12:15:28;;;;;;;14.40;11.93;;;5.30;86.30;;;;;;6270445;28;20045;-80
2023/02/28 12:18:54;;;;;;;11.50;9.30;;;5.20;85.00;;;;;;6267806;28;20050;-79
2023/02/28 12:22:15;;;;;;;10.52;9.40;;;5.30;85.70;;;;;;6269104;28;20056;-78
2023/02/28 12:25:44;;;;;;;26.33;14.15;;;5.40;85.10;;;;;;6264070;28;20044;-80
2023/02/28 12:28:51;;;;;;;16.63;11.80;;;5.50;85.00;;;;;;6263738;28;20065;-80
2023/02/28 12:31:57;;;;;;;33.00;17.42;;;5.60;84.80;;;;;;6261187;28;20053;-79
2023/02/28 12:35:03;;;;;;;12.13;8.63;;;5.80;84.70;;;;;;6264722;28;20076;-79
2023/02/28 12:38:11;;;;;;;18.10;13.18;;;5.90;82.90;;;;;;6263908;28;20044;-80
2023/02/28 12:41:17;;;;;;;12.05;10.18;;;5.90;83.20;;;;;;6271579;28;20060;-80
2023/02/28 12:44:24;;;;;;;11.82;9.13;;;5.90;83.40;;;;;;6266499;28;20467;-80
2023/02/28 12:47:26;;;;;;;12.73;9.30;;;5.90;82.60;;;;;;6262640;28;20053;-80
2023/02/28 12:50:31;;;;;;;13.75;10.13;;;5.70;82.80;;;;;;6267441;28;20057;-80
2023/02/28 12:53:43;;;;;;;12.40;11.10;;;5.70;82.90;;;;;;6256394;28;20057;-80
2023/02/28 12:56:53;;;;;;;15.35;9.90;;;5.60;82.80;;;;;;6263288;28;20060;-81
2023/02/28 12:59:58;;;;;;;12.82;9.77;;;5.50;82.50;;;;;;6263976;28;20049;-80
2023/02/28 13:03:34;;;;;;;14.55;11.23;;;5.90;83.80;;;;;;6264109;28;20054;-80
2023/02/28 13:07:14;;;;;;;10.27;9.15;;;6.70;82.80;;;;;;6240575;28;20049;-81
2023/02/28 13:10:18;;;;;;;11.13;9.48;;;7.30;81.50;;;;;;6250833;28;20051;-81
2023/02/28 13:13:22;;;;;;;14.52;10.60;;;7.60;79.80;;;;;;6255011;28;20051;-78
2023/02/28 13:16:24;;;;;;;13.07;10.88;;;7.70;79.80;;;;;;6247201;28;20052;-78
2023/02/28 13:19:29;;;;;;;10.65;9.25;;;7.40;78.50;;;;;;6245202;28;20042;-78
2023/02/28 13:22:42;;;;;;;11.98;10.30;;;7.10;78.60;;;;;;6250393;28;20056;-79
2023/02/28 13:25:55;;;;;;;12.27;10.85;;;7.10;78.90;;;;;;6262260;28;20106;-79
2023/02/28 13:29:01;;;;;;;17.00;10.35;;;7.00;78.20;;;;;;6259297;28;20045;-80
2023/02/28 13:32:39;;;;;;;14.00;12.18;;;7.10;79.20;;;;;;6253241;28;20058;-80
2023/02/28 13:35:46;;;;;;;12.60;10.13;;;7.50;78.50;;;;;;6263032;28;20037;-79
2023/02/28 13:38:48;;;;;;;11.63;10.48;;;7.50;78.20;;;;;;6265179;28;20056;-79
2023/02/28 13:41:52;;;;;;;11.82;10.60;;;7.70;77.50;;;;;;6262931;28;20389;-80
2023/02/28 13:45:23;;;;;;;10.63;8.52;;;7.90;77.80;;;;;;6258079;28;20060;-80
2023/02/28 13:48:28;;;;;;;16.08;9.82;;;8.30;76.50;;;;;;6256250;28;20054;-82
2023/02/28 13:51:43;;;;;;;12.82;9.75;;;8.20;75.70;;;;;;6264550;28;20060;-80
2023/02/28 13:55:01;;;;;;;13.00;10.55;;;8.10;74.80;;;;;;6265595;28;20107;-80
2023/02/28 13:58:27;;;;;;;11.63;9.82;;;7.80;75.20;;;;;;6267610;28;20045;-80
2023/02/28 14:01:53;;;;;;;16.98;10.32;;;7.80;76.00;;;;;;6267837;28;20053;-80
2023/02/28 14:05:06;;;;;;;13.20;10.90;;;7.90;76.30;;;;;;6266527;28;20044;-80
2023/02/28 14:08:16;;;;;;;9.95;8.48;;;8.60;76.50;;;;;;6263590;28;20143;-80
2023/02/28 14:11:27;;;;;;;11.82;8.23;;;8.90;74.40;;;;;;6266048;28;20041;-80
2023/02/28 14:14:57;;;;;;;9.90;8.88;;;9.00;73.90;;;;;;6267852;28;20140;-81
2023/02/28 14:18:01;;;;;;;40.10;34.03;;;9.30;73.40;;;;;;6262111;28;20045;-80
2023/02/28 14:21:11;;;;;;;12.18;9.50;;;9.20;72.20;;;;;;6268342;28;20063;-80
2023/02/28 14:24:50;;;;;;;12.68;11.32;;;8.90;72.10;;;;;;6266564;28;20037;-79
2023/02/28 14:28:05;;;;;;;12.27;11.10;;;8.80;71.70;;;;;;6260455;28;20147;-79
2023/02/28 14:31:12;;;;;;;13.13;11.80;;;8.70;72.70;;;;;;6265268;28;20053;-79
2023/02/28 14:34:29;;;;;;;9.85;8.82;;;8.70;72.30;;;;;;6263404;28;20061;-80
2023/02/28 14:37:37;;;;;;;14.00;11.65;;;8.90;72.60;;;;;;6259095;28;20045;-80
2023/02/28 14:40:40;;;;;;;13.98;10.73;;;9.00;71.40;;;;;;6255236;28;20045;-80
2023/02/28 14:43:49;;;;;;;12.45;9.35;;;8.90;71.50;;;;;;6250357;28;20056;-81
2023/02/28 14:46:55;;;;;;;18.00;11.18;;;9.10;72.00;;;;;;6255030;28;20068;-79
2023/02/28 14:49:57;;;;;;;15.18;10.88;;;9.40;71.50;;;;;;6255678;28;20064;-79
2023/02/28 14:52:59;;;;;;;12.18;9.77;;;9.50;71.80;;;;;;6258590;28;20050;-79
2023/02/28 14:56:02;;;;;;;14.20;10.80;;;9.50;70.80;;;;;;6257477;28;20109;-80
2023/02/28 14:59:06;;;;;;;14.65;11.02;;;9.40;70.40;;;;;;6261203;28;21535;-79
2023/02/28 15:02:22;;;;;;;13.88;10.30;;;9.40;70.60;;;;;;6255186;28;20045;-79
2023/02/28 15:05:27;;;;;;;13.27;11.77;;;9.40;70.30;;;;;;6255961;28;20130;-79
2023/02/28 15:08:34;;;;;;;13.45;12.05;;;9.40;70.40;;;;;;6261193;28;20052;-80
2023/02/28 15:11:37;;;;;;;10.90;9.77;;;9.20;70.40;;;;;;6260298;28;20049;-80
2023/02/28 15:14:42;;;;;;;13.18;10.77;;;9.20;70.00;;;;;;6265088;28;20041;-80
2023/02/28 15:17:49;;;;;;;13.00;11.43;;;9.10;70.20;;;;;;6261132;28;20502;-79
2023/02/28 15:20:51;;;;;;;11.25;10.20;;;8.90;70.10;;;;;;6261770;28;20049;-79
2023/02/28 15:23:57;;;;;;;11.85;9.02;;;8.80;70.30;;;;;;6256809;28;20046;-79
2023/02/28 15:27:01;;;;;;;13.30;11.20;;;8.60;70.20;;;;;;6254731;28;20060;-80
2023/02/28 15:30:07;;;;;;;12.40;10.13;;;8.60;70.20;;;;;;6256093;28;20045;-80
2023/02/28 15:33:22;;;;;;;14.20;11.55;;;8.60;70.50;;;;;;6255679;28;20598;-81
2023/02/28 15:36:27;;;;;;;16.52;12.05;;;8.50;70.40;;;;;;6254566;28;20050;-79
2023/02/28 15:39:30;;;;;;;10.10;8.73;;;8.30;70.70;;;;;;6256432;28;20095;-80
2023/02/28 15:42:32;;;;;;;14.40;11.80;;;8.00;70.90;;;;;;6256254;28;20053;-81
2023/02/28 15:45:38;;;;;;;11.60;10.27;;;7.70;70.70;;;;;;6250747;28;20568;-81
2023/02/28 15:48:49;;;;;;;13.95;10.80;;;7.40;71.50;;;;;;6246296;28;20046;-81
2023/02/28 15:51:53;;;;;;;12.32;8.25;;;7.20;72.00;;;;;;6248219;28;20061;-81
2023/02/28 15:54:54;;;;;;;14.27;12.25;;;7.00;72.40;;;;;;6247983;28;20045;-81
2023/02/28 15:58:01;;;;;;;13.00;10.32;;;6.80;72.60;;;;;;6251707;28;20601;-80
2023/02/28 16:01:17;;;;;;;14.27;11.25;;;6.60;73.20;;;;;;6253737;28;20050;-81
2023/02/28 16:04:21;;;;;;;13.40;11.60;;;6.40;73.50;;;;;;6249849;28;20049;-81
2023/02/28 16:07:23;;;;;;;11.88;10.25;;;6.30;74.00;;;;;;6253354;28;21231;-81